sensor_id;sensor_type;location;lat;lon;timestamp;P1;durP1;ratioP1;P2;durP2;ratioP2
3081;SDS011;1551;51.046;7.010;2023-11-19T00:00:08;3.70;;;1.02;;
3081;SDS011;1551;51.046;7.010;2023-11-19T00:03:01;3.63;;;1.10;;
3081;SDS011;1551;51.046;7.010;2023-11-19T00:05:50;2.50;;;1.10;;
3081;SDS011;1551;51.046;7.010;2023-11-19T00:08:39;2.70;;;1.30;;
3081;SDS011;1551;51.046;7.010;2023-11-19T00:11:28;4.60;;;1.50;;
3081;SDS011;1551;51.046;7.010;2023-11-19T00:14:17;2.70;;;1.27;;
3081;SDS011;1551;51.046;7.010;2023-11-19T00:17:06;2.22;;;1.10;;
3081;SDS011;1551;51.046;7.010;2023-11-19T00:19:55;2.40;;;1.05;;
3081;SDS011;1551;51.046;7.010;2023-11-19T00:22:44;4.40;;;1.20;;
3081;SDS011;1551;51.046;7.010;2023-11-19T00:25:35;2.50;;;1.10;;
3081;SDS011;1551;51.046;7.010;2023-11-19T00:28:24;2.83;;;1.10;;
3081;SDS011;1551;51.046;7.010;2023-11-19T00:31:13;3.10;;;1.00;;
3081;SDS011;1551;51.046;7.010;2023-11-19T00:34:02;2.22;;;0.90;;
3081;SDS011;1551;51.046;7.010;2023-11-19T00:36:51;2.70;;;1.10;;
3081;SDS011;1551;51.046;7.010;2023-11-19T00:39:41;2.40;;;0.80;;
3081;SDS011;1551;51.046;7.010;2023-11-19T00:42:30;2.20;;;1.00;;
3081;SDS011;1551;51.046;7.010;2023-11-19T00:45:19;1.92;;;1.00;;
3081;SDS011;1551;51.046;7.010;2023-11-19T00:48:08;3.60;;;1.50;;
3081;SDS011;1551;51.046;7.010;2023-11-19T00:50:58;3.10;;;1.40;;
3081;SDS011;1551;51.046;7.010;2023-11-19T00:53:47;2.45;;;1.20;;
3081;SDS011;1551;51.046;7.010;2023-11-19T00:56:36;2.10;;;0.90;;
3081;SDS011;1551;51.046;7.010;2023-11-19T00:59:26;2.35;;;1.20;;
3081;SDS011;1551;51.046;7.010;2023-11-19T01:02:15;2.80;;;1.10;;
3081;SDS011;1551;51.046;7.010;2023-11-19T01:05:04;3.40;;;1.20;;
3081;SDS011;1551;51.046;7.010;2023-11-19T01:07:53;2.83;;;1.02;;
3081;SDS011;1551;51.046;7.010;2023-11-19T01:10:42;2.30;;;1.10;;
3081;SDS011;1551;51.046;7.010;2023-11-19T01:13:32;3.20;;;1.30;;
3081;SDS011;1551;51.046;7.010;2023-11-19T01:16:21;3.90;;;1.30;;
3081;SDS011;1551;51.046;7.010;2023-11-19T01:19:13;2.40;;;1.10;;
3081;SDS011;1551;51.046;7.010;2023-11-19T01:22:02;2.33;;;1.10;;
3081;SDS011;1551;51.046;7.010;2023-11-19T01:24:51;3.00;;;1.50;;
3081;SDS011;1551;51.046;7.010;2023-11-19T01:27:41;3.10;;;1.42;;
3081;SDS011;1551;51.046;7.010;2023-11-19T01:30:29;2.47;;;1.30;;
3081;SDS011;1551;51.046;7.010;2023-11-19T01:33:19;2.30;;;1.30;;
3081;SDS011;1551;51.046;7.010;2023-11-19T01:36:08;3.10;;;1.30;;
3081;SDS011;1551;51.046;7.010;2023-11-19T01:38:57;4.37;;;1.30;;
3081;SDS011;1551;51.046;7.010;2023-11-19T01:41:46;2.60;;;1.30;;
3081;SDS011;1551;51.046;7.010;2023-11-19T01:44:36;2.20;;;1.15;;
3081;SDS011;1551;51.046;7.010;2023-11-19T01:47:25;2.20;;;1.10;;
3081;SDS011;1551;51.046;7.010;2023-11-19T01:50:15;2.10;;;1.10;;
3081;SDS011;1551;51.046;7.010;2023-11-19T01:53:04;3.00;;;1.40;;
3081;SDS011;1551;51.046;7.010;2023-11-19T01:55:53;2.33;;;1.30;;
3081;SDS011;1551;51.046;7.010;2023-11-19T01:58:42;3.00;;;1.40;;
3081;SDS011;1551;51.046;7.010;2023-11-19T02:01:34;2.88;;;1.10;;
3081;SDS011;1551;51.046;7.010;2023-11-19T02:04:26;2.20;;;1.10;;
3081;SDS011;1551;51.046;7.010;2023-11-19T02:07:15;3.40;;;1.30;;
3081;SDS011;1551;51.046;7.010;2023-11-19T02:10:06;3.08;;;1.83;;
3081;SDS011;1551;51.046;7.010;2023-11-19T02:13:00;2.45;;;1.20;;
3081;SDS011;1551;51.046;7.010;2023-11-19T02:15:50;3.13;;;1.40;;
3081;SDS011;1551;51.046;7.010;2023-11-19T02:18:39;5.63;;;1.60;;
3081;SDS011;1551;51.046;7.010;2023-11-19T02:21:28;3.40;;;1.50;;
3081;SDS011;1551;51.046;7.010;2023-11-19T02:24:18;22.63;;;11.55;;
3081;SDS011;1551;51.046;7.010;2023-11-19T02:27:14;19.63;;;14.43;;
3081;SDS011;1551;51.046;7.010;2023-11-19T02:30:10;9.50;;;6.43;;
3081;SDS011;1551;51.046;7.010;2023-11-19T02:33:00;5.70;;;2.88;;
3081;SDS011;1551;51.046;7.010;2023-11-19T02:35:54;5.20;;;1.80;;
3081;SDS011;1551;51.046;7.010;2023-11-19T02:38:44;3.58;;;1.33;;
3081;SDS011;1551;51.046;7.010;2023-11-19T02:41:33;2.92;;;1.38;;
3081;SDS011;1551;51.046;7.010;2023-11-19T02:44:23;4.45;;;1.80;;
3081;SDS011;1551;51.046;7.010;2023-11-19T02:47:13;3.30;;;1.70;;
3081;SDS011;1551;51.046;7.010;2023-11-19T02:50:02;3.97;;;2.10;;
3081;SDS011;1551;51.046;7.010;2023-11-19T02:52:52;3.13;;;1.63;;
3081;SDS011;1551;51.046;7.010;2023-11-19T02:55:42;4.53;;;1.88;;
3081;SDS011;1551;51.046;7.010;2023-11-19T02:58:37;2.63;;;1.52;;
3081;SDS011;1551;51.046;7.010;2023-11-19T03:01:26;3.65;;;2.05;;
3081;SDS011;1551;51.046;7.010;2023-11-19T03:04:18;3.80;;;2.00;;
3081;SDS011;1551;51.046;7.010;2023-11-19T03:07:09;10.98;;;7.20;;
3081;SDS011;1551;51.046;7.010;2023-11-19T03:09:57;7.50;;;5.38;;
3081;SDS011;1551;51.046;7.010;2023-11-19T03:12:46;8.88;;;6.03;;
3081;SDS011;1551;51.046;7.010;2023-11-19T03:15:35;9.40;;;6.20;;
3081;SDS011;1551;51.046;7.010;2023-11-19T03:18:24;7.75;;;5.80;;
3081;SDS011;1551;51.046;7.010;2023-11-19T03:21:14;5.40;;;2.50;;
3081;SDS011;1551;51.046;7.010;2023-11-19T03:24:03;4.32;;;2.53;;
3081;SDS011;1551;51.046;7.010;2023-11-19T03:26:52;7.95;;;3.40;;
3081;SDS011;1551;51.046;7.010;2023-11-19T03:29:41;5.57;;;2.27;;
3081;SDS011;1551;51.046;7.010;2023-11-19T03:32:34;5.85;;;2.17;;
3081;SDS011;1551;51.046;7.010;2023-11-19T03:35:24;3.95;;;2.20;;
3081;SDS011;1551;51.046;7.010;2023-11-19T03:38:13;3.40;;;2.00;;
3081;SDS011;1551;51.046;7.010;2023-11-19T03:41:12;3.30;;;1.90;;
3081;SDS011;1551;51.046;7.010;2023-11-19T03:44:02;4.25;;;2.25;;
3081;SDS011;1551;51.046;7.010;2023-11-19T03:46:51;5.80;;;1.90;;
3081;SDS011;1551;51.046;7.010;2023-11-19T03:49:39;6.50;;;2.35;;
3081;SDS011;1551;51.046;7.010;2023-11-19T03:52:28;7.78;;;1.92;;
3081;SDS011;1551;51.046;7.010;2023-11-19T03:55:18;8.65;;;2.78;;
3081;SDS011;1551;51.046;7.010;2023-11-19T03:58:07;7.75;;;2.47;;
3081;SDS011;1551;51.046;7.010;2023-11-19T04:00:56;7.40;;;2.00;;
3081;SDS011;1551;51.046;7.010;2023-11-19T04:03:45;6.85;;;2.50;;
3081;SDS011;1551;51.046;7.010;2023-11-19T04:06:33;8.43;;;2.30;;
3081;SDS011;1551;51.046;7.010;2023-11-19T04:09:23;10.82;;;2.50;;
3081;SDS011;1551;51.046;7.010;2023-11-19T04:12:12;9.10;;;2.45;;
3081;SDS011;1551;51.046;7.010;2023-11-19T04:15:01;9.15;;;2.08;;
3081;SDS011;1551;51.046;7.010;2023-11-19T04:17:51;9.32;;;2.70;;
3081;SDS011;1551;51.046;7.010;2023-11-19T04:20:40;7.25;;;2.40;;
3081;SDS011;1551;51.046;7.010;2023-11-19T04:23:30;10.63;;;3.63;;
3081;SDS011;1551;51.046;7.010;2023-11-19T04:26:20;6.83;;;2.40;;
3081;SDS011;1551;51.046;7.010;2023-11-19T04:29:09;5.40;;;2.58;;
3081;SDS011;1551;51.046;7.010;2023-11-19T04:32:00;6.60;;;2.47;;
3081;SDS011;1551;51.046;7.010;2023-11-19T04:34:50;6.75;;;2.20;;
3081;SDS011;1551;51.046;7.010;2023-11-19T04:37:41;6.43;;;2.50;;
3081;SDS011;1551;51.046;7.010;2023-11-19T04:40:30;7.30;;;1.92;;
3081;SDS011;1551;51.046;7.010;2023-11-19T04:43:19;8.30;;;3.10;;
3081;SDS011;1551;51.046;7.010;2023-11-19T04:46:09;7.22;;;2.00;;
3081;SDS011;1551;51.046;7.010;2023-11-19T04:48:58;8.63;;;2.70;;
3081;SDS011;1551;51.046;7.010;2023-11-19T04:51:47;8.00;;;2.70;;
3081;SDS011;1551;51.046;7.010;2023-11-19T04:54:41;10.27;;;2.97;;
3081;SDS011;1551;51.046;7.010;2023-11-19T04:57:31;11.48;;;2.65;;
3081;SDS011;1551;51.046;7.010;2023-11-19T05:00:21;9.88;;;2.50;;
3081;SDS011;1551;51.046;7.010;2023-11-19T05:03:10;8.75;;;2.60;;
3081;SDS011;1551;51.046;7.010;2023-11-19T05:05:59;6.88;;;2.08;;
3081;SDS011;1551;51.046;7.010;2023-11-19T05:08:48;8.20;;;2.45;;
3081;SDS011;1551;51.046;7.010;2023-11-19T05:11:37;11.25;;;3.20;;
3081;SDS011;1551;51.046;7.010;2023-11-19T05:14:27;11.48;;;2.72;;
3081;SDS011;1551;51.046;7.010;2023-11-19T05:17:19;14.50;;;3.00;;
3081;SDS011;1551;51.046;7.010;2023-11-19T05:20:08;10.52;;;2.58;;
3081;SDS011;1551;51.046;7.010;2023-11-19T05:23:02;9.90;;;2.93;;
3081;SDS011;1551;51.046;7.010;2023-11-19T05:25:51;7.05;;;2.70;;
3081;SDS011;1551;51.046;7.010;2023-11-19T05:28:39;9.82;;;2.10;;
3081;SDS011;1551;51.046;7.010;2023-11-19T05:31:28;9.93;;;2.33;;
3081;SDS011;1551;51.046;7.010;2023-11-19T05:34:17;9.35;;;2.60;;
3081;SDS011;1551;51.046;7.010;2023-11-19T05:37:06;10.23;;;2.88;;
3081;SDS011;1551;51.046;7.010;2023-11-19T05:39:55;10.82;;;2.90;;
3081;SDS011;1551;51.046;7.010;2023-11-19T05:42:44;7.13;;;2.67;;
3081;SDS011;1551;51.046;7.010;2023-11-19T05:45:33;14.45;;;3.78;;
3081;SDS011;1551;51.046;7.010;2023-11-19T05:48:22;10.70;;;3.00;;
3081;SDS011;1551;51.046;7.010;2023-11-19T05:51:11;8.88;;;2.58;;
3081;SDS011;1551;51.046;7.010;2023-11-19T05:54:00;9.60;;;3.05;;
3081;SDS011;1551;51.046;7.010;2023-11-19T05:56:49;9.70;;;3.38;;
3081;SDS011;1551;51.046;7.010;2023-11-19T05:59:38;11.18;;;3.13;;
3081;SDS011;1551;51.046;7.010;2023-11-19T06:02:27;12.23;;;2.70;;
3081;SDS011;1551;51.046;7.010;2023-11-19T06:05:18;10.32;;;2.60;;
3081;SDS011;1551;51.046;7.010;2023-11-19T06:08:07;8.85;;;2.53;;
3081;SDS011;1551;51.046;7.010;2023-11-19T06:10:56;10.55;;;2.50;;
3081;SDS011;1551;51.046;7.010;2023-11-19T06:13:46;15.00;;;3.78;;
3081;SDS011;1551;51.046;7.010;2023-11-19T06:16:36;11.85;;;4.68;;
3081;SDS011;1551;51.046;7.010;2023-11-19T06:19:25;14.27;;;3.58;;
3081;SDS011;1551;51.046;7.010;2023-11-19T06:22:14;13.70;;;3.70;;
3081;SDS011;1551;51.046;7.010;2023-11-19T06:25:03;12.90;;;3.00;;
3081;SDS011;1551;51.046;7.010;2023-11-19T06:27:56;12.13;;;3.30;;
3081;SDS011;1551;51.046;7.010;2023-11-19T06:30:45;11.75;;;3.08;;
3081;SDS011;1551;51.046;7.010;2023-11-19T06:33:35;11.07;;;3.20;;
3081;SDS011;1551;51.046;7.010;2023-11-19T06:36:24;17.90;;;4.15;;
3081;SDS011;1551;51.046;7.010;2023-11-19T06:39:12;7.70;;;3.08;;
3081;SDS011;1551;51.046;7.010;2023-11-19T06:42:01;12.27;;;3.20;;
3081;SDS011;1551;51.046;7.010;2023-11-19T06:44:51;12.52;;;2.78;;
3081;SDS011;1551;51.046;7.010;2023-11-19T06:47:40;14.82;;;3.10;;
3081;SDS011;1551;51.046;7.010;2023-11-19T06:50:29;16.43;;;3.60;;
3081;SDS011;1551;51.046;7.010;2023-11-19T06:53:18;13.23;;;3.30;;
3081;SDS011;1551;51.046;7.010;2023-11-19T06:56:23;13.23;;;3.40;;
3081;SDS011;1551;51.046;7.010;2023-11-19T06:59:12;11.02;;;3.90;;
3081;SDS011;1551;51.046;7.010;2023-11-19T07:02:01;15.45;;;3.30;;
3081;SDS011;1551;51.046;7.010;2023-11-19T07:04:50;14.88;;;3.75;;
3081;SDS011;1551;51.046;7.010;2023-11-19T07:07:39;15.13;;;4.22;;
3081;SDS011;1551;51.046;7.010;2023-11-19T07:10:29;8.20;;;2.83;;
3081;SDS011;1551;51.046;7.010;2023-11-19T07:13:18;13.15;;;2.65;;
3081;SDS011;1551;51.046;7.010;2023-11-19T07:16:08;11.90;;;3.00;;
3081;SDS011;1551;51.046;7.010;2023-11-19T07:19:00;10.15;;;2.88;;
3081;SDS011;1551;51.046;7.010;2023-11-19T07:21:50;13.45;;;3.65;;
3081;SDS011;1551;51.046;7.010;2023-11-19T07:24:39;11.45;;;3.10;;
3081;SDS011;1551;51.046;7.010;2023-11-19T07:27:29;13.32;;;3.40;;
3081;SDS011;1551;51.046;7.010;2023-11-19T07:30:18;14.90;;;3.65;;
3081;SDS011;1551;51.046;7.010;2023-11-19T07:33:08;11.20;;;3.00;;
3081;SDS011;1551;51.046;7.010;2023-11-19T07:35:56;12.55;;;3.97;;
3081;SDS011;1551;51.046;7.010;2023-11-19T07:38:45;14.75;;;4.18;;
3081;SDS011;1551;51.046;7.010;2023-11-19T07:41:36;8.88;;;3.55;;
3081;SDS011;1551;51.046;7.010;2023-11-19T07:44:28;11.23;;;3.63;;
3081;SDS011;1551;51.046;7.010;2023-11-19T07:47:16;17.00;;;3.40;;
3081;SDS011;1551;51.046;7.010;2023-11-19T07:50:06;11.13;;;3.75;;
3081;SDS011;1551;51.046;7.010;2023-11-19T07:52:55;13.77;;;3.00;;
3081;SDS011;1551;51.046;7.010;2023-11-19T07:55:44;11.25;;;2.60;;
3081;SDS011;1551;51.046;7.010;2023-11-19T07:58:33;12.52;;;3.42;;
3081;SDS011;1551;51.046;7.010;2023-11-19T08:01:22;12.85;;;3.60;;
3081;SDS011;1551;51.046;7.010;2023-11-19T08:04:12;11.88;;;2.95;;
3081;SDS011;1551;51.046;7.010;2023-11-19T08:07:01;10.57;;;3.30;;
3081;SDS011;1551;51.046;7.010;2023-11-19T08:09:51;10.88;;;3.22;;
3081;SDS011;1551;51.046;7.010;2023-11-19T08:12:40;10.48;;;3.03;;
3081;SDS011;1551;51.046;7.010;2023-11-19T08:15:29;12.27;;;3.90;;
3081;SDS011;1551;51.046;7.010;2023-11-19T08:18:18;12.77;;;4.00;;
3081;SDS011;1551;51.046;7.010;2023-11-19T08:21:07;15.73;;;5.13;;
3081;SDS011;1551;51.046;7.010;2023-11-19T08:23:57;13.43;;;3.63;;
3081;SDS011;1551;51.046;7.010;2023-11-19T08:26:46;10.60;;;3.15;;
3081;SDS011;1551;51.046;7.010;2023-11-19T08:29:35;13.05;;;3.50;;
3081;SDS011;1551;51.046;7.010;2023-11-19T08:32:27;12.23;;;3.43;;
3081;SDS011;1551;51.046;7.010;2023-11-19T08:35:16;12.20;;;3.70;;
3081;SDS011;1551;51.046;7.010;2023-11-19T08:38:05;11.25;;;3.70;;
3081;SDS011;1551;51.046;7.010;2023-11-19T08:40:54;13.40;;;3.30;;
3081;SDS011;1551;51.046;7.010;2023-11-19T08:43:48;11.02;;;3.15;;
3081;SDS011;1551;51.046;7.010;2023-11-19T08:46:37;12.90;;;3.78;;
3081;SDS011;1551;51.046;7.010;2023-11-19T08:49:26;11.73;;;3.20;;
3081;SDS011;1551;51.046;7.010;2023-11-19T08:52:15;10.98;;;3.30;;
3081;SDS011;1551;51.046;7.010;2023-11-19T08:55:05;13.75;;;3.63;;
3081;SDS011;1551;51.046;7.010;2023-11-19T08:57:55;15.17;;;3.87;;
3081;SDS011;1551;51.046;7.010;2023-11-19T09:00:44;13.50;;;3.60;;
3081;SDS011;1551;51.046;7.010;2023-11-19T09:03:33;9.68;;;3.28;;
3081;SDS011;1551;51.046;7.010;2023-11-19T09:06:22;11.65;;;3.30;;
3081;SDS011;1551;51.046;7.010;2023-11-19T09:09:10;12.38;;;2.92;;
3081;SDS011;1551;51.046;7.010;2023-11-19T09:11:59;15.43;;;3.63;;
3081;SDS011;1551;51.046;7.010;2023-11-19T09:14:48;12.05;;;3.67;;
3081;SDS011;1551;51.046;7.010;2023-11-19T09:17:38;14.05;;;3.50;;
3081;SDS011;1551;51.046;7.010;2023-11-19T09:20:27;16.40;;;3.50;;
3081;SDS011;1551;51.046;7.010;2023-11-19T09:23:16;14.65;;;4.30;;
3081;SDS011;1551;51.046;7.010;2023-11-19T09:26:05;14.05;;;4.00;;
3081;SDS011;1551;51.046;7.010;2023-11-19T09:28:56;16.33;;;4.22;;
3081;SDS011;1551;51.046;7.010;2023-11-19T09:31:45;17.98;;;4.03;;
3081;SDS011;1551;51.046;7.010;2023-11-19T09:34:34;13.53;;;3.40;;
3081;SDS011;1551;51.046;7.010;2023-11-19T09:37:23;14.73;;;4.10;;
3081;SDS011;1551;51.046;7.010;2023-11-19T09:40:12;13.00;;;3.15;;
3081;SDS011;1551;51.046;7.010;2023-11-19T09:43:01;13.02;;;3.28;;
3081;SDS011;1551;51.046;7.010;2023-11-19T09:45:50;9.70;;;2.80;;
3081;SDS011;1551;51.046;7.010;2023-11-19T09:48:40;17.63;;;3.63;;
3081;SDS011;1551;51.046;7.010;2023-11-19T09:51:29;15.13;;;4.20;;
3081;SDS011;1551;51.046;7.010;2023-11-19T09:54:18;14.73;;;4.03;;
3081;SDS011;1551;51.046;7.010;2023-11-19T09:57:07;13.75;;;3.92;;
3081;SDS011;1551;51.046;7.010;2023-11-19T09:59:58;12.85;;;3.13;;
3081;SDS011;1551;51.046;7.010;2023-11-19T10:02:47;17.42;;;3.90;;
3081;SDS011;1551;51.046;7.010;2023-11-19T10:05:38;10.00;;;2.67;;
3081;SDS011;1551;51.046;7.010;2023-11-19T10:08:27;9.23;;;2.83;;
3081;SDS011;1551;51.046;7.010;2023-11-19T10:11:17;13.13;;;3.53;;
3081;SDS011;1551;51.046;7.010;2023-11-19T10:14:06;13.38;;;3.95;;
3081;SDS011;1551;51.046;7.010;2023-11-19T10:16:55;18.08;;;3.97;;
3081;SDS011;1551;51.046;7.010;2023-11-19T10:19:44;16.50;;;3.78;;
3081;SDS011;1551;51.046;7.010;2023-11-19T10:22:36;12.23;;;3.30;;
3081;SDS011;1551;51.046;7.010;2023-11-19T10:25:27;12.43;;;3.22;;
3081;SDS011;1551;51.046;7.010;2023-11-19T10:28:17;14.27;;;3.60;;
3081;SDS011;1551;51.046;7.010;2023-11-19T10:31:07;16.02;;;4.28;;
3081;SDS011;1551;51.046;7.010;2023-11-19T10:33:56;18.67;;;4.20;;
3081;SDS011;1551;51.046;7.010;2023-11-19T10:36:45;10.27;;;2.87;;
3081;SDS011;1551;51.046;7.010;2023-11-19T10:39:53;14.07;;;3.30;;
3081;SDS011;1551;51.046;7.010;2023-11-19T10:42:43;11.07;;;3.10;;
3081;SDS011;1551;51.046;7.010;2023-11-19T10:45:32;13.95;;;3.80;;
3081;SDS011;1551;51.046;7.010;2023-11-19T10:48:22;13.52;;;3.55;;
3081;SDS011;1551;51.046;7.010;2023-11-19T10:51:13;10.15;;;2.72;;
3081;SDS011;1551;51.046;7.010;2023-11-19T10:54:09;13.55;;;3.38;;
3081;SDS011;1551;51.046;7.010;2023-11-19T10:56:59;13.47;;;3.73;;
3081;SDS011;1551;51.046;7.010;2023-11-19T10:59:52;10.70;;;3.03;;
3081;SDS011;1551;51.046;7.010;2023-11-19T11:02:44;12.43;;;3.20;;
3081;SDS011;1551;51.046;7.010;2023-11-19T11:05:37;13.23;;;4.28;;
3081;SDS011;1551;51.046;7.010;2023-11-19T11:08:27;16.63;;;4.13;;
3081;SDS011;1551;51.046;7.010;2023-11-19T11:11:16;13.48;;;3.40;;
3081;SDS011;1551;51.046;7.010;2023-11-19T11:14:11;11.60;;;3.88;;
3081;SDS011;1551;51.046;7.010;2023-11-19T11:17:03;11.73;;;3.30;;
3081;SDS011;1551;51.046;7.010;2023-11-19T11:19:56;10.07;;;3.13;;
3081;SDS011;1551;51.046;7.010;2023-11-19T11:22:50;12.68;;;2.90;;
3081;SDS011;1551;51.046;7.010;2023-11-19T11:38:07;9.40;;;2.33;;
3081;SDS011;1551;51.046;7.010;2023-11-19T11:41:16;8.73;;;2.88;;
3081;SDS011;1551;51.046;7.010;2023-11-19T11:44:07;10.85;;;3.63;;
3081;SDS011;1551;51.046;7.010;2023-11-19T11:46:57;10.27;;;3.20;;
3081;SDS011;1551;51.046;7.010;2023-11-19T11:49:46;7.53;;;2.63;;
3081;SDS011;1551;51.046;7.010;2023-11-19T11:58:38;9.60;;;2.70;;
3081;SDS011;1551;51.046;7.010;2023-11-19T12:01:31;7.03;;;2.25;;
3081;SDS011;1551;51.046;7.010;2023-11-19T12:04:20;11.15;;;3.15;;
3081;SDS011;1551;51.046;7.010;2023-11-19T12:07:13;8.35;;;2.90;;
3081;SDS011;1551;51.046;7.010;2023-11-19T12:10:12;9.45;;;2.20;;
3081;SDS011;1551;51.046;7.010;2023-11-19T12:13:01;7.15;;;2.60;;
3081;SDS011;1551;51.046;7.010;2023-11-19T12:18:45;10.27;;;2.72;;
3081;SDS011;1551;51.046;7.010;2023-11-19T12:21:36;7.50;;;2.70;;
3081;SDS011;1551;51.046;7.010;2023-11-19T12:24:26;9.27;;;3.10;;
3081;SDS011;1551;51.046;7.010;2023-11-19T12:27:15;11.95;;;3.00;;
3081;SDS011;1551;51.046;7.010;2023-11-19T12:30:06;11.90;;;2.50;;
3081;SDS011;1551;51.046;7.010;2023-11-19T12:32:55;11.10;;;3.10;;
3081;SDS011;1551;51.046;7.010;2023-11-19T12:35:45;7.43;;;2.88;;
3081;SDS011;1551;51.046;7.010;2023-11-19T12:38:36;8.67;;;2.93;;
3081;SDS011;1551;51.046;7.010;2023-11-19T12:41:25;9.52;;;3.20;;
3081;SDS011;1551;51.046;7.010;2023-11-19T12:44:13;9.95;;;2.95;;
3081;SDS011;1551;51.046;7.010;2023-11-19T12:49:58;14.43;;;4.90;;
3081;SDS011;1551;51.046;7.010;2023-11-19T12:52:57;10.00;;;3.30;;
3081;SDS011;1551;51.046;7.010;2023-11-19T12:55:47;11.63;;;5.40;;
3081;SDS011;1551;51.046;7.010;2023-11-19T12:58:36;10.18;;;3.70;;
3081;SDS011;1551;51.046;7.010;2023-11-19T13:01:25;11.75;;;4.80;;
3081;SDS011;1551;51.046;7.010;2023-11-19T13:04:17;13.80;;;4.90;;
3081;SDS011;1551;51.046;7.010;2023-11-19T13:07:07;7.33;;;3.50;;
3081;SDS011;1551;51.046;7.010;2023-11-19T13:10:02;10.50;;;4.72;;
3081;SDS011;1551;51.046;7.010;2023-11-19T13:13:01;13.50;;;4.68;;
3081;SDS011;1551;51.046;7.010;2023-11-19T13:15:50;10.48;;;3.10;;
3081;SDS011;1551;51.046;7.010;2023-11-19T13:18:40;7.00;;;2.92;;
3081;SDS011;1551;51.046;7.010;2023-11-19T13:21:29;10.60;;;2.83;;
3081;SDS011;1551;51.046;7.010;2023-11-19T13:24:19;13.02;;;2.83;;
3081;SDS011;1551;51.046;7.010;2023-11-19T13:27:08;9.13;;;2.65;;
3081;SDS011;1551;51.046;7.010;2023-11-19T13:29:56;10.80;;;3.30;;
3081;SDS011;1551;51.046;7.010;2023-11-19T13:32:46;8.13;;;3.38;;
3081;SDS011;1551;51.046;7.010;2023-11-19T13:35:35;9.30;;;2.78;;
3081;SDS011;1551;51.046;7.010;2023-11-19T13:38:25;8.63;;;2.77;;
3081;SDS011;1551;51.046;7.010;2023-11-19T13:41:14;8.88;;;2.70;;
3081;SDS011;1551;51.046;7.010;2023-11-19T13:44:03;9.18;;;2.85;;
3081;SDS011;1551;51.046;7.010;2023-11-19T13:46:53;9.60;;;2.08;;
3081;SDS011;1551;51.046;7.010;2023-11-19T13:49:42;10.02;;;2.80;;
3081;SDS011;1551;51.046;7.010;2023-11-19T13:52:33;7.38;;;2.45;;
3081;SDS011;1551;51.046;7.010;2023-11-19T13:55:22;9.93;;;3.90;;
3081;SDS011;1551;51.046;7.010;2023-11-19T13:58:11;12.25;;;3.00;;
3081;SDS011;1551;51.046;7.010;2023-11-19T14:01:00;11.03;;;3.03;;
3081;SDS011;1551;51.046;7.010;2023-11-19T14:03:49;11.00;;;3.43;;
3081;SDS011;1551;51.046;7.010;2023-11-19T14:06:37;10.32;;;3.22;;
3081;SDS011;1551;51.046;7.010;2023-11-19T14:09:26;7.32;;;2.50;;
3081;SDS011;1551;51.046;7.010;2023-11-19T14:12:15;10.65;;;2.95;;
3081;SDS011;1551;51.046;7.010;2023-11-19T14:15:06;12.25;;;3.25;;
3081;SDS011;1551;51.046;7.010;2023-11-19T14:17:58;9.90;;;2.70;;
3081;SDS011;1551;51.046;7.010;2023-11-19T14:20:47;11.38;;;3.45;;
3081;SDS011;1551;51.046;7.010;2023-11-19T14:23:36;11.48;;;3.42;;
3081;SDS011;1551;51.046;7.010;2023-11-19T14:26:25;7.10;;;3.03;;
3081;SDS011;1551;51.046;7.010;2023-11-19T14:29:14;10.63;;;3.42;;
3081;SDS011;1551;51.046;7.010;2023-11-19T14:32:03;12.17;;;3.20;;
3081;SDS011;1551;51.046;7.010;2023-11-19T14:34:53;10.85;;;3.38;;
3081;SDS011;1551;51.046;7.010;2023-11-19T14:37:41;9.35;;;3.20;;
3081;SDS011;1551;51.046;7.010;2023-11-19T14:40:30;10.65;;;2.80;;
3081;SDS011;1551;51.046;7.010;2023-11-19T14:43:19;11.02;;;3.40;;
3081;SDS011;1551;51.046;7.010;2023-11-19T14:46:08;11.00;;;3.55;;
3081;SDS011;1551;51.046;7.010;2023-11-19T14:48:57;15.07;;;2.60;;
3081;SDS011;1551;51.046;7.010;2023-11-19T14:51:47;9.77;;;2.35;;
3081;SDS011;1551;51.046;7.010;2023-11-19T14:54:37;6.85;;;2.30;;
3081;SDS011;1551;51.046;7.010;2023-11-19T14:57:27;9.02;;;2.45;;
3081;SDS011;1551;51.046;7.010;2023-11-19T15:00:16;10.13;;;2.90;;
3081;SDS011;1551;51.046;7.010;2023-11-19T15:03:05;8.48;;;2.85;;
3081;SDS011;1551;51.046;7.010;2023-11-19T15:05:55;8.30;;;2.90;;
3081;SDS011;1551;51.046;7.010;2023-11-19T15:08:44;11.90;;;3.47;;
3081;SDS011;1551;51.046;7.010;2023-11-19T15:11:33;8.85;;;3.45;;
3081;SDS011;1551;51.046;7.010;2023-11-19T15:14:22;12.30;;;3.63;;
3081;SDS011;1551;51.046;7.010;2023-11-19T15:17:11;7.20;;;2.63;;
3081;SDS011;1551;51.046;7.010;2023-11-19T15:20:00;11.55;;;3.20;;
3081;SDS011;1551;51.046;7.010;2023-11-19T15:22:49;9.80;;;2.88;;
3081;SDS011;1551;51.046;7.010;2023-11-19T15:25:38;11.85;;;3.20;;
3081;SDS011;1551;51.046;7.010;2023-11-19T15:28:27;11.38;;;3.28;;
3081;SDS011;1551;51.046;7.010;2023-11-19T15:31:16;11.25;;;2.67;;
3081;SDS011;1551;51.046;7.010;2023-11-19T15:34:05;12.32;;;3.30;;
3081;SDS011;1551;51.046;7.010;2023-11-19T15:36:55;9.75;;;2.80;;
3081;SDS011;1551;51.046;7.010;2023-11-19T15:39:44;11.13;;;2.47;;
3081;SDS011;1551;51.046;7.010;2023-11-19T15:42:33;12.00;;;2.67;;
3081;SDS011;1551;51.046;7.010;2023-11-19T15:45:23;11.13;;;3.03;;
3081;SDS011;1551;51.046;7.010;2023-11-19T15:48:12;8.60;;;2.10;;
3081;SDS011;1551;51.046;7.010;2023-11-19T15:51:02;15.20;;;3.30;;
3081;SDS011;1551;51.046;7.010;2023-11-19T15:53:51;10.45;;;3.13;;
3081;SDS011;1551;51.046;7.010;2023-11-19T15:56:40;10.40;;;2.90;;
3081;SDS011;1551;51.046;7.010;2023-11-19T15:59:29;9.88;;;3.10;;
3081;SDS011;1551;51.046;7.010;2023-11-19T16:02:20;13.63;;;3.00;;
3081;SDS011;1551;51.046;7.010;2023-11-19T16:05:08;13.05;;;3.70;;
3081;SDS011;1551;51.046;7.010;2023-11-19T16:07:57;7.72;;;3.03;;
3081;SDS011;1551;51.046;7.010;2023-11-19T16:10:46;10.75;;;2.90;;
3081;SDS011;1551;51.046;7.010;2023-11-19T16:13:37;7.30;;;2.28;;
3081;SDS011;1551;51.046;7.010;2023-11-19T16:16:27;9.27;;;2.70;;
3081;SDS011;1551;51.046;7.010;2023-11-19T16:19:16;7.93;;;2.70;;
3081;SDS011;1551;51.046;7.010;2023-11-19T16:22:06;8.45;;;2.55;;
3081;SDS011;1551;51.046;7.010;2023-11-19T16:24:59;9.90;;;3.33;;
3081;SDS011;1551;51.046;7.010;2023-11-19T16:27:48;15.82;;;3.58;;
3081;SDS011;1551;51.046;7.010;2023-11-19T16:30:39;7.10;;;2.60;;
3081;SDS011;1551;51.046;7.010;2023-11-19T16:33:30;12.02;;;4.40;;
3081;SDS011;1551;51.046;7.010;2023-11-19T16:36:19;12.02;;;3.05;;
3081;SDS011;1551;51.046;7.010;2023-11-19T16:39:07;11.73;;;3.30;;
3081;SDS011;1551;51.046;7.010;2023-11-19T16:41:58;12.07;;;3.08;;
3081;SDS011;1551;51.046;7.010;2023-11-19T16:44:47;13.63;;;3.00;;
3081;SDS011;1551;51.046;7.010;2023-11-19T16:47:37;11.55;;;3.10;;
3081;SDS011;1551;51.046;7.010;2023-11-19T16:50:29;11.50;;;2.90;;
3081;SDS011;1551;51.046;7.010;2023-11-19T16:53:18;9.73;;;2.78;;
3081;SDS011;1551;51.046;7.010;2023-11-19T16:56:07;10.73;;;3.10;;
3081;SDS011;1551;51.046;7.010;2023-11-19T16:58:56;12.65;;;3.90;;
3081;SDS011;1551;51.046;7.010;2023-11-19T17:01:45;13.68;;;3.42;;
3081;SDS011;1551;51.046;7.010;2023-11-19T17:04:35;15.95;;;3.40;;
3081;SDS011;1551;51.046;7.010;2023-11-19T17:07:24;12.55;;;3.67;;
3081;SDS011;1551;51.046;7.010;2023-11-19T17:10:14;11.80;;;3.60;;
3081;SDS011;1551;51.046;7.010;2023-11-19T17:13:03;8.63;;;2.40;;
3081;SDS011;1551;51.046;7.010;2023-11-19T17:15:52;11.52;;;3.40;;
3081;SDS011;1551;51.046;7.010;2023-11-19T17:18:41;9.40;;;3.10;;
3081;SDS011;1551;51.046;7.010;2023-11-19T17:21:30;7.28;;;2.55;;
3081;SDS011;1551;51.046;7.010;2023-11-19T17:24:19;12.63;;;2.60;;
3081;SDS011;1551;51.046;7.010;2023-11-19T17:27:08;15.33;;;3.20;;
3081;SDS011;1551;51.046;7.010;2023-11-19T17:29:57;10.38;;;3.72;;
3081;SDS011;1551;51.046;7.010;2023-11-19T17:32:47;14.20;;;3.30;;
3081;SDS011;1551;51.046;7.010;2023-11-19T17:35:36;8.73;;;2.50;;
3081;SDS011;1551;51.046;7.010;2023-11-19T17:38:25;13.60;;;3.28;;
3081;SDS011;1551;51.046;7.010;2023-11-19T17:41:15;9.05;;;2.60;;
3081;SDS011;1551;51.046;7.010;2023-11-19T17:44:04;10.85;;;3.35;;
3081;SDS011;1551;51.046;7.010;2023-11-19T17:46:54;14.57;;;3.30;;
3081;SDS011;1551;51.046;7.010;2023-11-19T17:49:42;8.97;;;3.40;;